sensor_id;sensor_type;location;lat;lon;timestamp;temperature;humidity
76203;DHT22;64985;46.364;17.008;2023-06-04T00:00:22;13.00;99.90
76203;DHT22;64985;46.364;17.008;2023-06-04T00:03:24;12.90;99.90
76203;DHT22;64985;46.364;17.008;2023-06-04T00:06:27;12.90;99.90
76203;DHT22;64985;46.364;17.008;2023-06-04T00:09:29;12.90;99.90
76203;DHT22;64985;46.364;17.008;2023-06-04T00:12:31;12.80;99.90
76203;DHT22;64985;46.364;17.008;2023-06-04T00:15:33;12.80;99.90
76203;DHT22;64985;46.364;17.008;2023-06-04T00:18:35;12.80;99.90
76203;DHT22;64985;46.364;17.008;2023-06-04T00:21:37;12.80;99.90
76203;DHT22;64985;46.364;17.008;2023-06-04T00:24:39;12.80;99.90
76203;DHT22;64985;46.364;17.008;2023-06-04T00:27:44;12.70;99.90
76203;DHT22;64985;46.364;17.008;2023-06-04T00:30:47;12.70;99.90
76203;DHT22;64985;46.364;17.008;2023-06-04T00:33:49;12.70;99.90
76203;DHT22;64985;46.364;17.008;2023-06-04T00:36:51;12.60;99.90
76203;DHT22;64985;46.364;17.008;2023-06-04T00:39:53;12.60;99.90
76203;DHT22;64985;46.364;17.008;2023-06-04T00:42:55;12.60;99.90
76203;DHT22;64985;46.364;17.008;2023-06-04T00:45:58;12.60;99.90
76203;DHT22;64985;46.364;17.008;2023-06-04T00:49:00;12.60;99.90
76203;DHT22;64985;46.364;17.008;2023-06-04T00:52:03;12.50;99.90
76203;DHT22;64985;46.364;17.008;2023-06-04T00:55:06;12.40;99.90
76203;DHT22;64985;46.364;17.008;2023-06-04T00:58:08;12.40;99.90
76203;DHT22;64985;46.364;17.008;2023-06-04T01:05:03;12.40;99.90
76203;DHT22;64985;46.364;17.008;2023-06-04T01:08:11;12.40;99.90
76203;DHT22;64985;46.364;17.008;2023-06-04T01:11:13;12.40;99.90
76203;DHT22;64985;46.364;17.008;2023-06-04T01:14:15;12.40;99.90
76203;DHT22;64985;46.364;17.008;2023-06-04T01:20:25;12.50;99.90
76203;DHT22;64985;46.364;17.008;2023-06-04T01:26:36;12.60;99.90
76203;DHT22;64985;46.364;17.008;2023-06-04T01:29:38;12.60;99.90
76203;DHT22;64985;46.364;17.008;2023-06-04T01:32:40;12.50;99.90
76203;DHT22;64985;46.364;17.008;2023-06-04T01:35:43;12.40;99.90
76203;DHT22;64985;46.364;17.008;2023-06-04T01:38:45;12.40;99.90
76203;DHT22;64985;46.364;17.008;2023-06-04T01:41:48;12.30;99.90
76203;DHT22;64985;46.364;17.008;2023-06-04T01:44:50;12.30;99.90
76203;DHT22;64985;46.364;17.008;2023-06-04T01:47:53;12.20;99.90
76203;DHT22;64985;46.364;17.008;2023-06-04T01:50:55;12.10;99.90
76203;DHT22;64985;46.364;17.008;2023-06-04T01:53:58;12.00;99.90
76203;DHT22;64985;46.364;17.008;2023-06-04T01:57:00;12.00;99.90
76203;DHT22;64985;46.364;17.008;2023-06-04T02:00:03;12.00;99.90
76203;DHT22;64985;46.364;17.008;2023-06-04T02:03:07;11.90;99.90
76203;DHT22;64985;46.364;17.008;2023-06-04T02:06:10;11.80;99.90
76203;DHT22;64985;46.364;17.008;2023-06-04T02:09:13;11.80;99.90
76203;DHT22;64985;46.364;17.008;2023-06-04T02:12:16;11.70;99.90
76203;DHT22;64985;46.364;17.008;2023-06-04T02:15:18;11.60;99.90
76203;DHT22;64985;46.364;17.008;2023-06-04T02:18:20;11.50;99.90
76203;DHT22;64985;46.364;17.008;2023-06-04T02:21:24;11.50;99.90
76203;DHT22;64985;46.364;17.008;2023-06-04T02:24:26;11.40;99.90
76203;DHT22;64985;46.364;17.008;2023-06-04T02:27:28;11.30;99.90
76203;DHT22;64985;46.364;17.008;2023-06-04T02:30:30;11.30;99.90
76203;DHT22;64985;46.364;17.008;2023-06-04T02:33:32;11.30;99.90
76203;DHT22;64985;46.364;17.008;2023-06-04T02:36:34;11.30;99.90
76203;DHT22;64985;46.364;17.008;2023-06-04T02:39:37;11.30;99.90
76203;DHT22;64985;46.364;17.008;2023-06-04T02:42:39;11.30;99.90
76203;DHT22;64985;46.364;17.008;2023-06-04T02:45:41;11.40;99.90
76203;DHT22;64985;46.364;17.008;2023-06-04T02:48:44;11.40;99.90
76203;DHT22;64985;46.364;17.008;2023-06-04T02:51:46;11.50;99.90
76203;DHT22;64985;46.364;17.008;2023-06-04T02:54:48;11.60;99.90
76203;DHT22;64985;46.364;17.008;2023-06-04T02:57:51;11.60;99.90
76203;DHT22;64985;46.364;17.008;2023-06-04T03:00:54;11.80;99.90
76203;DHT22;64985;46.364;17.008;2023-06-04T03:03:57;11.80;99.90
76203;DHT22;64985;46.364;17.008;2023-06-04T03:07:00;11.80;99.90
76203;DHT22;64985;46.364;17.008;2023-06-04T03:10:03;11.90;99.90
76203;DHT22;64985;46.364;17.008;2023-06-04T03:13:06;11.90;99.90
76203;DHT22;64985;46.364;17.008;2023-06-04T03:16:08;11.90;99.90
76203;DHT22;64985;46.364;17.008;2023-06-04T03:19:11;12.00;99.90
76203;DHT22;64985;46.364;17.008;2023-06-04T03:22:14;12.10;99.90
76203;DHT22;64985;46.364;17.008;2023-06-04T03:25:18;12.30;99.90
76203;DHT22;64985;46.364;17.008;2023-06-04T03:28:20;12.50;99.90
76203;DHT22;64985;46.364;17.008;2023-06-04T03:31:22;12.70;99.90
76203;DHT22;64985;46.364;17.008;2023-06-04T03:34:24;13.00;99.90
76203;DHT22;64985;46.364;17.008;2023-06-04T03:37:29;13.30;99.90
76203;DHT22;64985;46.364;17.008;2023-06-04T03:40:31;13.60;99.90
76203;DHT22;64985;46.364;17.008;2023-06-04T03:43:33;13.70;99.90
76203;DHT22;64985;46.364;17.008;2023-06-04T03:46:35;13.90;99.90
76203;DHT22;64985;46.364;17.008;2023-06-04T03:49:37;14.00;99.90
76203;DHT22;64985;46.364;17.008;2023-06-04T03:52:39;14.00;99.90
76203;DHT22;64985;46.364;17.008;2023-06-04T03:55:42;14.00;99.90
76203;DHT22;64985;46.364;17.008;2023-06-04T03:58:44;14.10;99.90
76203;DHT22;64985;46.364;17.008;2023-06-04T04:01:46;14.20;99.90
76203;DHT22;64985;46.364;17.008;2023-06-04T04:04:48;14.30;99.90
76203;DHT22;64985;46.364;17.008;2023-06-04T04:07:51;14.30;99.90
76203;DHT22;64985;46.364;17.008;2023-06-04T04:10:53;14.40;97.50
76203;DHT22;64985;46.364;17.008;2023-06-04T04:13:57;14.50;98.80
76203;DHT22;64985;46.364;17.008;2023-06-04T04:17:00;14.50;97.90
76203;DHT22;64985;46.364;17.008;2023-06-04T04:20:02;14.50;97.70
76203;DHT22;64985;46.364;17.008;2023-06-04T04:23:07;14.60;98.70
76203;DHT22;64985;46.364;17.008;2023-06-04T04:26:10;14.60;96.30
76203;DHT22;64985;46.364;17.008;2023-06-04T04:29:12;14.60;95.60
76203;DHT22;64985;46.364;17.008;2023-06-04T04:32:15;14.70;97.70
76203;DHT22;64985;46.364;17.008;2023-06-04T04:35:18;14.70;96.20
76203;DHT22;64985;46.364;17.008;2023-06-04T04:38:20;14.80;94.50
76203;DHT22;64985;46.364;17.008;2023-06-04T04:41:25;14.80;94.30
76203;DHT22;64985;46.364;17.008;2023-06-04T04:44:27;14.80;93.20
76203;DHT22;64985;46.364;17.008;2023-06-04T04:47:30;14.90;92.80
76203;DHT22;64985;46.364;17.008;2023-06-04T04:50:32;14.90;90.70
76203;DHT22;64985;46.364;17.008;2023-06-04T04:53:35;14.90;91.30
76203;DHT22;64985;46.364;17.008;2023-06-04T04:56:37;14.90;93.20
76203;DHT22;64985;46.364;17.008;2023-06-04T04:59:39;15.00;95.40
76203;DHT22;64985;46.364;17.008;2023-06-04T05:02:41;15.10;94.60
76203;DHT22;64985;46.364;17.008;2023-06-04T05:05:43;15.10;91.60
76203;DHT22;64985;46.364;17.008;2023-06-04T05:08:45;15.10;90.20
76203;DHT22;64985;46.364;17.008;2023-06-04T05:11:48;15.10;92.70
76203;DHT22;64985;46.364;17.008;2023-06-04T05:14:50;15.00;90.90
76203;DHT22;64985;46.364;17.008;2023-06-04T05:17:52;15.10;90.70
76203;DHT22;64985;46.364;17.008;2023-06-04T05:20:55;15.10;91.80
76203;DHT22;64985;46.364;17.008;2023-06-04T05:23:57;15.10;90.40
76203;DHT22;64985;46.364;17.008;2023-06-04T05:26:59;15.10;90.20
76203;DHT22;64985;46.364;17.008;2023-06-04T05:30:06;15.20;90.00
76203;DHT22;64985;46.364;17.008;2023-06-04T05:33:09;15.30;89.60
76203;DHT22;64985;46.364;17.008;2023-06-04T05:36:20;15.30;89.90
76203;DHT22;64985;46.364;17.008;2023-06-04T05:39:22;15.30;90.10
76203;DHT22;64985;46.364;17.008;2023-06-04T05:42:25;15.30;90.40
76203;DHT22;64985;46.364;17.008;2023-06-04T05:45:28;15.40;94.40
76203;DHT22;64985;46.364;17.008;2023-06-04T05:48:30;15.40;88.60
76203;DHT22;64985;46.364;17.008;2023-06-04T05:51:32;15.50;91.70
76203;DHT22;64985;46.364;17.008;2023-06-04T05:54:34;15.50;88.80
76203;DHT22;64985;46.364;17.008;2023-06-04T05:57:36;15.60;86.10
76203;DHT22;64985;46.364;17.008;2023-06-04T06:00:38;15.70;83.20
76203;DHT22;64985;46.364;17.008;2023-06-04T06:03:40;15.80;88.50
76203;DHT22;64985;46.364;17.008;2023-06-04T06:06:42;15.80;83.30
76203;DHT22;64985;46.364;17.008;2023-06-04T06:09:49;15.90;83.20
76203;DHT22;64985;46.364;17.008;2023-06-04T06:12:51;16.00;78.40
76203;DHT22;64985;46.364;17.008;2023-06-04T06:15:55;16.20;82.20
76203;DHT22;64985;46.364;17.008;2023-06-04T06:18:58;16.20;79.10
76203;DHT22;64985;46.364;17.008;2023-06-04T06:22:00;16.40;78.00
76203;DHT22;64985;46.364;17.008;2023-06-04T06:25:02;16.50;73.60
76203;DHT22;64985;46.364;17.008;2023-06-04T06:28:07;16.60;81.00
76203;DHT22;64985;46.364;17.008;2023-06-04T06:31:09;16.90;76.50
76203;DHT22;64985;46.364;17.008;2023-06-04T06:34:12;17.20;75.40
76203;DHT22;64985;46.364;17.008;2023-06-04T06:37:14;17.30;76.00
76203;DHT22;64985;46.364;17.008;2023-06-04T06:40:16;17.60;70.70
76203;DHT22;64985;46.364;17.008;2023-06-04T06:43:18;17.90;68.70
76203;DHT22;64985;46.364;17.008;2023-06-04T06:46:20;18.10;70.10
76203;DHT22;64985;46.364;17.008;2023-06-04T06:49:22;18.20;68.20
76203;DHT22;64985;46.364;17.008;2023-06-04T06:52:25;18.40;64.40
76203;DHT22;64985;46.364;17.008;2023-06-04T06:55:27;18.50;65.80
76203;DHT22;64985;46.364;17.008;2023-06-04T06:58:29;18.70;64.70
76203;DHT22;64985;46.364;17.008;2023-06-04T07:01:31;19.00;66.30
76203;DHT22;64985;46.364;17.008;2023-06-04T07:04:35;19.40;62.10
76203;DHT22;64985;46.364;17.008;2023-06-04T07:07:38;19.80;62.50
76203;DHT22;64985;46.364;17.008;2023-06-04T07:10:40;20.40;61.30
76203;DHT22;64985;46.364;17.008;2023-06-04T07:13:42;20.90;58.60
76203;DHT22;64985;46.364;17.008;2023-06-04T07:16:44;21.30;54.60
76203;DHT22;64985;46.364;17.008;2023-06-04T07:19:46;21.40;55.60
76203;DHT22;64985;46.364;17.008;2023-06-04T07:22:48;21.90;54.70
76203;DHT22;64985;46.364;17.008;2023-06-04T07:25:51;22.60;53.10
76203;DHT22;64985;46.364;17.008;2023-06-04T07:28:54;23.20;51.90
76203;DHT22;64985;46.364;17.008;2023-06-04T07:31:56;23.40;52.20
76203;DHT22;64985;46.364;17.008;2023-06-04T07:34:58;22.90;53.70
76203;DHT22;64985;46.364;17.008;2023-06-04T07:38:00;22.60;51.90
76203;DHT22;64985;46.364;17.008;2023-06-04T07:41:02;22.00;54.10
76203;DHT22;64985;46.364;17.008;2023-06-04T07:44:04;21.50;52.60
76203;DHT22;64985;46.364;17.008;2023-06-04T07:47:07;21.40;55.40
76203;DHT22;64985;46.364;17.008;2023-06-04T07:50:09;22.10;52.30
76203;DHT22;64985;46.364;17.008;2023-06-04T07:53:11;22.60;54.20
76203;DHT22;64985;46.364;17.008;2023-06-04T07:56:13;22.40;53.60
76203;DHT22;64985;46.364;17.008;2023-06-04T07:59:15;22.50;52.20
76203;DHT22;64985;46.364;17.008;2023-06-04T08:02:18;23.20;54.40
76203;DHT22;64985;46.364;17.008;2023-06-04T08:05:20;23.10;51.70
76203;DHT22;64985;46.364;17.008;2023-06-04T08:08:23;23.50;54.60
76203;DHT22;64985;46.364;17.008;2023-06-04T08:11:25;23.90;53.40
76203;DHT22;64985;46.364;17.008;2023-06-04T08:14:27;24.30;52.10
76203;DHT22;64985;46.364;17.008;2023-06-04T08:17:29;24.80;52.20
76203;DHT22;64985;46.364;17.008;2023-06-04T08:20:31;25.00;53.00
76203;DHT22;64985;46.364;17.008;2023-06-04T08:23:34;25.10;51.80
76203;DHT22;64985;46.364;17.008;2023-06-04T08:26:36;25.30;53.40
76203;DHT22;64985;46.364;17.008;2023-06-04T08:29:38;25.20;52.30
76203;DHT22;64985;46.364;17.008;2023-06-04T08:32:42;24.40;50.90
76203;DHT22;64985;46.364;17.008;2023-06-04T08:35:44;24.30;56.50
76203;DHT22;64985;46.364;17.008;2023-06-04T08:38:46;24.50;53.00
76203;DHT22;64985;46.364;17.008;2023-06-04T08:41:56;24.90;53.80
76203;DHT22;64985;46.364;17.008;2023-06-04T08:45:00;24.70;55.40
76203;DHT22;64985;46.364;17.008;2023-06-04T08:48:03;24.20;54.10
76203;DHT22;64985;46.364;17.008;2023-06-04T08:51:07;24.80;54.20
76203;DHT22;64985;46.364;17.008;2023-06-04T08:54:11;25.20;54.00
76203;DHT22;64985;46.364;17.008;2023-06-04T08:57:13;25.40;54.70
76203;DHT22;64985;46.364;17.008;2023-06-04T09:00:16;25.10;52.80
76203;DHT22;64985;46.364;17.008;2023-06-04T09:03:19;25.00;54.50
76203;DHT22;64985;46.364;17.008;2023-06-04T09:06:25;24.60;53.90
76203;DHT22;64985;46.364;17.008;2023-06-04T09:09:29;24.30;58.20
76203;DHT22;64985;46.364;17.008;2023-06-04T09:12:32;24.50;56.70
76203;DHT22;64985;46.364;17.008;2023-06-04T09:15:35;25.10;54.50
76203;DHT22;64985;46.364;17.008;2023-06-04T09:18:37;25.70;53.60
76203;DHT22;64985;46.364;17.008;2023-06-04T09:21:49;26.50;53.20
76203;DHT22;64985;46.364;17.008;2023-06-04T09:24:52;25.90;54.10
76203;DHT22;64985;46.364;17.008;2023-06-04T09:27:58;26.40;51.40
76203;DHT22;64985;46.364;17.008;2023-06-04T09:31:14;26.90;51.00
76203;DHT22;64985;46.364;17.008;2023-06-04T09:34:27;27.40;51.90
76203;DHT22;64985;46.364;17.008;2023-06-04T09:37:29;28.00;51.50
76203;DHT22;64985;46.364;17.008;2023-06-04T09:40:36;28.40;45.70
76203;DHT22;64985;46.364;17.008;2023-06-04T09:43:39;28.50;46.40
76203;DHT22;64985;46.364;17.008;2023-06-04T09:46:42;28.40;46.70
76203;DHT22;64985;46.364;17.008;2023-06-04T09:49:54;28.70;48.90
76203;DHT22;64985;46.364;17.008;2023-06-04T09:52:56;29.40;45.80
76203;DHT22;64985;46.364;17.008;2023-06-04T09:56:00;28.90;45.80
76203;DHT22;64985;46.364;17.008;2023-06-04T09:59:02;28.20;47.20
76203;DHT22;64985;46.364;17.008;2023-06-04T10:02:06;27.50;47.10
76203;DHT22;64985;46.364;17.008;2023-06-04T10:05:11;26.90;49.30
76203;DHT22;64985;46.364;17.008;2023-06-04T10:08:17;26.90;49.00
76203;DHT22;64985;46.364;17.008;2023-06-04T10:11:33;26.90;51.60
76203;DHT22;64985;46.364;17.008;2023-06-04T10:14:41;27.70;48.50
76203;DHT22;64985;46.364;17.008;2023-06-04T10:17:43;27.90;50.00
76203;DHT22;64985;46.364;17.008;2023-06-04T10:20:46;27.50;47.50
76203;DHT22;64985;46.364;17.008;2023-06-04T10:23:49;27.30;48.40
76203;DHT22;64985;46.364;17.008;2023-06-04T10:26:54;27.00;50.30
76203;DHT22;64985;46.364;17.008;2023-06-04T10:29:58;26.90;49.20
76203;DHT22;64985;46.364;17.008;2023-06-04T10:33:00;26.80;51.00
76203;DHT22;64985;46.364;17.008;2023-06-04T10:36:21;26.30;49.50
76203;DHT22;64985;46.364;17.008;2023-06-04T10:39:31;26.50;50.80
76203;DHT22;64985;46.364;17.008;2023-06-04T10:42:43;27.00;50.00
76203;DHT22;64985;46.364;17.008;2023-06-04T10:45:45;27.30;46.90
76203;DHT22;64985;46.364;17.008;2023-06-04T10:48:49;27.30;51.10
76203;DHT22;64985;46.364;17.008;2023-06-04T10:51:51;27.40;51.70
76203;DHT22;64985;46.364;17.008;2023-06-04T10:55:06;27.50;50.60
76203;DHT22;64985;46.364;17.008;2023-06-04T10:58:09;27.80;48.70
76203;DHT22;64985;46.364;17.008;2023-06-04T11:01:11;27.90;50.40
76203;DHT22;64985;46.364;17.008;2023-06-04T11:04:25;27.50;48.70
76203;DHT22;64985;46.364;17.008;2023-06-04T11:07:27;28.00;49.50
76203;DHT22;64985;46.364;17.008;2023-06-04T11:10:35;28.70;46.10
76203;DHT22;64985;46.364;17.008;2023-06-04T11:13:37;28.90;46.40
76203;DHT22;64985;46.364;17.008;2023-06-04T11:16:39;28.70;49.40
76203;DHT22;64985;46.364;17.008;2023-06-04T11:19:42;28.60;45.80
76203;DHT22;64985;46.364;17.008;2023-06-04T11:22:51;28.30;47.20
76203;DHT22;64985;46.364;17.008;2023-06-04T11:25:53;27.90;46.50
76203;DHT22;64985;46.364;17.008;2023-06-04T11:28:55;27.90;47.60
76203;DHT22;64985;46.364;17.008;2023-06-04T11:31:58;28.70;46.50
76203;DHT22;64985;46.364;17.008;2023-06-04T11:35:04;29.40;43.90
76203;DHT22;64985;46.364;17.008;2023-06-04T11:38:10;28.00;46.30
76203;DHT22;64985;46.364;17.008;2023-06-04T11:41:12;27.40;48.60
76203;DHT22;64985;46.364;17.008;2023-06-04T11:44:18;28.40;50.20
76203;DHT22;64985;46.364;17.008;2023-06-04T11:47:21;29.00;46.50
76203;DHT22;64985;46.364;17.008;2023-06-04T11:50:27;29.40;44.20
76203;DHT22;64985;46.364;17.008;2023-06-04T11:53:29;29.00;45.80
76203;DHT22;64985;46.364;17.008;2023-06-04T11:56:31;28.50;47.40
76203;DHT22;64985;46.364;17.008;2023-06-04T11:59:34;27.90;48.30
76203;DHT22;64985;46.364;17.008;2023-06-04T12:02:37;28.10;48.80
76203;DHT22;64985;46.364;17.008;2023-06-04T12:05:39;27.70;47.90
76203;DHT22;64985;46.364;17.008;2023-06-04T12:08:50;28.50;48.00
76203;DHT22;64985;46.364;17.008;2023-06-04T12:11:58;29.60;47.70
76203;DHT22;64985;46.364;17.008;2023-06-04T12:15:01;29.80;43.70
76203;DHT22;64985;46.364;17.008;2023-06-04T12:18:04;28.50;47.90
76203;DHT22;64985;46.364;17.008;2023-06-04T12:21:23;28.30;47.60
76203;DHT22;64985;46.364;17.008;2023-06-04T12:24:33;28.60;46.10
76203;DHT22;64985;46.364;17.008;2023-06-04T12:27:46;29.20;45.60
76203;DHT22;64985;46.364;17.008;2023-06-04T12:30:49;29.40;43.20
76203;DHT22;64985;46.364;17.008;2023-06-04T12:33:51;28.60;47.20
76203;DHT22;64985;46.364;17.008;2023-06-04T12:36:53;28.50;47.80
76203;DHT22;64985;46.364;17.008;2023-06-04T12:39:56;29.00;45.20
76203;DHT22;64985;46.364;17.008;2023-06-04T12:42:58;29.10;45.80
76203;DHT22;64985;46.364;17.008;2023-06-04T12:46:00;29.10;46.90
76203;DHT22;64985;46.364;17.008;2023-06-04T12:49:02;29.10;44.70
76203;DHT22;64985;46.364;17.008;2023-06-04T12:52:05;29.10;46.10
76203;DHT22;64985;46.364;17.008;2023-06-04T12:55:07;29.70;45.50
76203;DHT22;64985;46.364;17.008;2023-06-04T12:58:10;29.60;46.30
76203;DHT22;64985;46.364;17.008;2023-06-04T13:01:12;28.50;44.50
76203;DHT22;64985;46.364;17.008;2023-06-04T13:04:14;28.50;44.00
76203;DHT22;64985;46.364;17.008;2023-06-04T13:07:17;28.20;45.50
76203;DHT22;64985;46.364;17.008;2023-06-04T13:10:19;28.50;45.20
76203;DHT22;64985;46.364;17.008;2023-06-04T13:13:22;28.70;43.40
76203;DHT22;64985;46.364;17.008;2023-06-04T13:16:27;29.10;47.20
76203;DHT22;64985;46.364;17.008;2023-06-04T13:19:29;30.00;42.40
76203;DHT22;64985;46.364;17.008;2023-06-04T13:22:31;29.80;43.20
76203;DHT22;64985;46.364;17.008;2023-06-04T13:25:34;29.10;44.50
76203;DHT22;64985;46.364;17.008;2023-06-04T13:28:37;28.10;46.10
76203;DHT22;64985;46.364;17.008;2023-06-04T13:31:39;27.50;46.60
76203;DHT22;64985;46.364;17.008;2023-06-04T13:34:42;27.00;49.00
76203;DHT22;64985;46.364;17.008;2023-06-04T13:37:44;27.00;47.30
76203;DHT22;64985;46.364;17.008;2023-06-04T13:40:49;26.80;51.80
76203;DHT22;64985;46.364;17.008;2023-06-04T13:43:51;26.50;50.30
76203;DHT22;64985;46.364;17.008;2023-06-04T13:46:54;26.20;51.70
76203;DHT22;64985;46.364;17.008;2023-06-04T13:49:56;26.50;52.00
76203;DHT22;64985;46.364;17.008;2023-06-04T13:52:58;26.60;52.30
76203;DHT22;64985;46.364;17.008;2023-06-04T13:56:00;26.40;50.30
76203;DHT22;64985;46.364;17.008;2023-06-04T13:59:02;26.70;51.70
76203;DHT22;64985;46.364;17.008;2023-06-04T14:02:05;27.20;52.00
76203;DHT22;64985;46.364;17.008;2023-06-04T14:05:07;27.50;49.30
76203;DHT22;64985;46.364;17.008;2023-06-04T14:08:10;27.80;48.60
76203;DHT22;64985;46.364;17.008;2023-06-04T14:11:14;27.90;47.80
76203;DHT22;64985;46.364;17.008;2023-06-04T14:14:17;27.80;50.70
76203;DHT22;64985;46.364;17.008;2023-06-04T14:17:19;27.90;48.70
76203;DHT22;64985;46.364;17.008;2023-06-04T14:20:21;28.30;48.60
76203;DHT22;64985;46.364;17.008;2023-06-04T14:23:23;28.70;48.50
76203;DHT22;64985;46.364;17.008;2023-06-04T14:26:26;28.50;46.00
76203;DHT22;64985;46.364;17.008;2023-06-04T14:29:28;28.50;49.30
76203;DHT22;64985;46.364;17.008;2023-06-04T14:32:30;28.30;47.20
76203;DHT22;64985;46.364;17.008;2023-06-04T14:35:34;29.20;47.80
76203;DHT22;64985;46.364;17.008;2023-06-04T14:38:36;29.60;47.20
76203;DHT22;64985;46.364;17.008;2023-06-04T14:41:38;29.90;47.00
76203;DHT22;64985;46.364;17.008;2023-06-04T14:44:41;29.30;48.30
76203;DHT22;64985;46.364;17.008;2023-06-04T14:47:43;28.70;44.60
76203;DHT22;64985;46.364;17.008;2023-06-04T14:50:45;27.80;46.60
76203;DHT22;64985;46.364;17.008;2023-06-04T14:53:48;27.30;47.10
76203;DHT22;64985;46.364;17.008;2023-06-04T14:56:51;27.00;49.10
76203;DHT22;64985;46.364;17.008;2023-06-04T14:59:53;26.80;50.90
76203;DHT22;64985;46.364;17.008;2023-06-04T15:02:55;26.50;48.00
76203;DHT22;64985;46.364;17.008;2023-06-04T15:05:57;26.50;49.80
76203;DHT22;64985;46.364;17.008;2023-06-04T15:09:19;26.60;48.90
76203;DHT22;64985;46.364;17.008;2023-06-04T15:12:21;26.70;48.40
76203;DHT22;64985;46.364;17.008;2023-06-04T15:15:23;26.70;50.50
76203;DHT22;64985;46.364;17.008;2023-06-04T15:18:25;26.80;49.90
76203;DHT22;64985;46.364;17.008;2023-06-04T15:21:28;26.50;49.90
76203;DHT22;64985;46.364;17.008;2023-06-04T15:24:30;26.50;52.90
76203;DHT22;64985;46.364;17.008;2023-06-04T15:27:33;26.20;50.70
76203;DHT22;64985;46.364;17.008;2023-06-04T15:30:36;25.80;53.70
76203;DHT22;64985;46.364;17.008;2023-06-04T15:33:38;25.50;53.60
76203;DHT22;64985;46.364;17.008;2023-06-04T15:36:40;25.20;54.50
76203;DHT22;64985;46.364;17.008;2023-06-04T15:39:42;25.00;53.70
76203;DHT22;64985;46.364;17.008;2023-06-04T15:42:44;25.00;54.80
76203;DHT22;64985;46.364;17.008;2023-06-04T15:45:46;24.90;54.40
76203;DHT22;64985;46.364;17.008;2023-06-04T15:48:49;24.80;57.20
76203;DHT22;64985;46.364;17.008;2023-06-04T15:51:51;24.80;58.10
76203;DHT22;64985;46.364;17.008;2023-06-04T15:54:53;24.80;55.30
76203;DHT22;64985;46.364;17.008;2023-06-04T15:57:55;24.90;56.70
76203;DHT22;64985;46.364;17.008;2023-06-04T16:00:58;24.70;57.70
76203;DHT22;64985;46.364;17.008;2023-06-04T16:04:02;24.80;58.90
76203;DHT22;64985;46.364;17.008;2023-06-04T16:07:04;24.70;60.10
76203;DHT22;64985;46.364;17.008;2023-06-04T16:10:07;24.50;60.50
76203;DHT22;64985;46.364;17.008;2023-06-04T16:13:10;24.20;63.70
76203;DHT22;64985;46.364;17.008;2023-06-04T16:16:12;24.00;61.50
76203;DHT22;64985;46.364;17.008;2023-06-04T16:19:14;23.80;62.70
76203;DHT22;64985;46.364;17.008;2023-06-04T16:22:16;23.60;60.20
76203;DHT22;64985;46.364;17.008;2023-06-04T16:25:18;23.40;59.50
76203;DHT22;64985;46.364;17.008;2023-06-04T16:28:20;23.20;61.00
76203;DHT22;64985;46.364;17.008;2023-06-04T16:31:22;23.00;64.20
76203;DHT22;64985;46.364;17.008;2023-06-04T16:34:24;22.90;69.60
76203;DHT22;64985;46.364;17.008;2023-06-04T16:37:26;22.70;77.80
76203;DHT22;64985;46.364;17.008;2023-06-04T16:40:29;22.50;82.80
76203;DHT22;64985;46.364;17.008;2023-06-04T16:43:31;22.30;84.40
76203;DHT22;64985;46.364;17.008;2023-06-04T16:46:34;22.10;90.30
76203;DHT22;64985;46.364;17.008;2023-06-04T16:49:36;21.80;82.30
76203;DHT22;64985;46.364;17.008;2023-06-04T16:52:38;21.40;94.60
76203;DHT22;64985;46.364;17.008;2023-06-04T16:55:41;20.30;99.90
76203;DHT22;64985;46.364;17.008;2023-06-04T16:58:43;20.00;99.90
76203;DHT22;64985;46.364;17.008;2023-06-04T17:01:46;19.70;99.90
76203;DHT22;64985;46.364;17.008;2023-06-04T17:04:48;19.40;99.90
76203;DHT22;64985;46.364;17.008;2023-06-04T17:07:51;19.10;99.90
76203;DHT22;64985;46.364;17.008;2023-06-04T17:10:53;18.70;99.90
76203;DHT22;64985;46.364;17.008;2023-06-04T17:13:55;18.30;99.90
76203;DHT22;64985;46.364;17.008;2023-06-04T17:16:57;18.00;99.90
76203;DHT22;64985;46.364;17.008;2023-06-04T17:19:59;17.90;99.90
76203;DHT22;64985;46.364;17.008;2023-06-04T17:23:02;17.80;99.90
76203;DHT22;64985;46.364;17.008;2023-06-04T17:26:04;17.70;99.90
76203;DHT22;64985;46.364;17.008;2023-06-04T17:29:08;17.70;99.90
76203;DHT22;64985;46.364;17.008;2023-06-04T17:32:11;17.80;99.90
76203;DHT22;64985;46.364;17.008;2023-06-04T17:35:13;17.80;99.90
76203;DHT22;64985;46.364;17.008;2023-06-04T17:38:16;17.80;99.90
76203;DHT22;64985;46.364;17.008;2023-06-04T17:41:18;17.90;99.90
76203;DHT22;64985;46.364;17.008;2023-06-04T17:44:21;17.90;99.90
76203;DHT22;64985;46.364;17.008;2023-06-04T17:47:24;17.70;99.90
76203;DHT22;64985;46.364;17.008;2023-06-04T17:50:26;17.70;99.90
76203;DHT22;64985;46.364;17.008;2023-06-04T17:53:30;17.70;99.90
76203;DHT22;64985;46.364;17.008;2023-06-04T17:56:33;17.70;99.90
76203;DHT22;64985;46.364;17.008;2023-06-04T17:59:36;17.70;99.90
76203;DHT22;64985;46.364;17.008;2023-06-04T18:02:39;17.70;99.90
76203;DHT22;64985;46.364;17.008;2023-06-04T18:05:42;17.80;99.90
76203;DHT22;64985;46.364;17.008;2023-06-04T18:08:45;17.60;99.90
76203;DHT22;64985;46.364;17.008;2023-06-04T18:11:48;17.50;99.90
76203;DHT22;64985;46.364;17.008;2023-06-04T18:14:50;17.40;99.90
76203;DHT22;64985;46.364;17.008;2023-06-04T18:17:53;17.30;99.90
76203;DHT22;64985;46.364;17.008;2023-06-04T18:20:57;17.30;99.90
76203;DHT22;64985;46.364;17.008;2023-06-04T18:24:00;17.40;99.90
76203;DHT22;64985;46.364;17.008;2023-06-04T18:27:04;17.40;99.90
76203;DHT22;64985;46.364;17.008;2023-06-04T18:30:08;17.40;99.90
76203;DHT22;64985;46.364;17.008;2023-06-04T18:33:11;17.40;99.90
76203;DHT22;64985;46.364;17.008;2023-06-04T18:36:14;17.40;99.90
76203;DHT22;64985;46.364;17.008;2023-06-04T18:39:20;17.30;99.90
76203;DHT22;64985;46.364;17.008;2023-06-04T18:42:23;17.20;99.90
76203;DHT22;64985;46.364;17.008;2023-06-04T18:45:30;17.20;99.90
76203;DHT22;64985;46.364;17.008;2023-06-04T18:48:33;17.10;99.90
76203;DHT22;64985;46.364;17.008;2023-06-04T18:51:36;17.20;99.90
76203;DHT22;64985;46.364;17.008;2023-06-04T18:54:39;17.20;99.90
76203;DHT22;64985;46.364;17.008;2023-06-04T18:57:43;17.20;99.90
76203;DHT22;64985;46.364;17.008;2023-06-04T19:00:46;17.20;99.90
76203;DHT22;64985;46.364;17.008;2023-06-04T19:03:49;17.10;99.90
76203;DHT22;64985;46.364;17.008;2023-06-04T19:06:53;17.00;99.90